sensor_id;sensor_type;location;lat;lon;timestamp;temperature;humidity
7762;DHT22;3925;48.636;9.516;2022-10-16T00:02:26;16.20;99.90
7762;DHT22;3925;48.636;9.516;2022-10-16T00:04:52;16.20;99.90
7762;DHT22;3925;48.636;9.516;2022-10-16T00:07:20;16.20;99.90
7762;DHT22;3925;48.636;9.516;2022-10-16T00:09:48;16.20;99.90
7762;DHT22;3925;48.636;9.516;2022-10-16T00:12:15;16.20;99.90
7762;DHT22;3925;48.636;9.516;2022-10-16T00:14:42;16.20;99.90
7762;DHT22;3925;48.636;9.516;2022-10-16T00:17:09;16.20;99.90
7762;DHT22;3925;48.636;9.516;2022-10-16T00:19:36;16.10;99.90
7762;DHT22;3925;48.636;9.516;2022-10-16T00:22:03;16.10;99.90
7762;DHT22;3925;48.636;9.516;2022-10-16T00:24:30;16.20;99.90
7762;DHT22;3925;48.636;9.516;2022-10-16T00:26:58;16.20;99.90
7762;DHT22;3925;48.636;9.516;2022-10-16T00:29:25;16.20;99.90
7762;DHT22;3925;48.636;9.516;2022-10-16T00:31:51;16.20;99.90
7762;DHT22;3925;48.636;9.516;2022-10-16T00:34:18;16.20;99.90
7762;DHT22;3925;48.636;9.516;2022-10-16T00:36:46;16.10;99.90
7762;DHT22;3925;48.636;9.516;2022-10-16T00:39:13;16.10;99.90
7762;DHT22;3925;48.636;9.516;2022-10-16T00:41:40;16.10;99.90
7762;DHT22;3925;48.636;9.516;2022-10-16T00:47:09;16.00;99.90
7762;DHT22;3925;48.636;9.516;2022-10-16T00:49:38;16.00;99.90
7762;DHT22;3925;48.636;9.516;2022-10-16T00:52:05;15.90;99.90
7762;DHT22;3925;48.636;9.516;2022-10-16T00:54:33;15.90;99.90
7762;DHT22;3925;48.636;9.516;2022-10-16T00:57:02;15.80;99.90
7762;DHT22;3925;48.636;9.516;2022-10-16T00:59:31;15.80;99.90
7762;DHT22;3925;48.636;9.516;2022-10-16T01:01:59;15.80;99.90
7762;DHT22;3925;48.636;9.516;2022-10-16T01:04:31;15.80;99.90
7762;DHT22;3925;48.636;9.516;2022-10-16T01:07:09;15.80;99.90
7762;DHT22;3925;48.636;9.516;2022-10-16T01:09:45;15.80;99.90
7762;DHT22;3925;48.636;9.516;2022-10-16T01:12:17;15.80;99.90
7762;DHT22;3925;48.636;9.516;2022-10-16T01:14:51;15.80;99.90
7762;DHT22;3925;48.636;9.516;2022-10-16T01:17:23;15.80;99.90
7762;DHT22;3925;48.636;9.516;2022-10-16T01:20:17;15.80;99.90
7762;DHT22;3925;48.636;9.516;2022-10-16T01:22:58;15.80;99.90
7762;DHT22;3925;48.636;9.516;2022-10-16T01:25:36;15.80;99.90
7762;DHT22;3925;48.636;9.516;2022-10-16T01:28:11;15.90;99.90
7762;DHT22;3925;48.636;9.516;2022-10-16T01:30:40;15.90;99.90
7762;DHT22;3925;48.636;9.516;2022-10-16T01:33:12;15.90;99.90
7762;DHT22;3925;48.636;9.516;2022-10-16T01:35:45;15.80;99.90
7762;DHT22;3925;48.636;9.516;2022-10-16T01:38:16;15.90;99.90
7762;DHT22;3925;48.636;9.516;2022-10-16T01:40:49;15.80;99.90
7762;DHT22;3925;48.636;9.516;2022-10-16T01:43:20;15.70;99.90
7762;DHT22;3925;48.636;9.516;2022-10-16T01:45:49;15.70;99.90
7762;DHT22;3925;48.636;9.516;2022-10-16T01:48:18;15.70;99.90
7762;DHT22;3925;48.636;9.516;2022-10-16T01:50:54;15.60;99.90
7762;DHT22;3925;48.636;9.516;2022-10-16T01:53:22;15.50;99.90
7762;DHT22;3925;48.636;9.516;2022-10-16T01:55:52;15.50;99.90
7762;DHT22;3925;48.636;9.516;2022-10-16T01:58:23;15.50;99.90
7762;DHT22;3925;48.636;9.516;2022-10-16T02:00:52;15.60;99.90
7762;DHT22;3925;48.636;9.516;2022-10-16T02:03:20;15.60;99.90
7762;DHT22;3925;48.636;9.516;2022-10-16T02:05:50;15.70;99.90
7762;DHT22;3925;48.636;9.516;2022-10-16T02:08:18;15.80;99.90
7762;DHT22;3925;48.636;9.516;2022-10-16T02:10:45;15.90;99.90
7762;DHT22;3925;48.636;9.516;2022-10-16T02:13:17;15.90;99.90
7762;DHT22;3925;48.636;9.516;2022-10-16T02:15:47;16.00;99.90
7762;DHT22;3925;48.636;9.516;2022-10-16T02:18:15;16.10;99.90
7762;DHT22;3925;48.636;9.516;2022-10-16T02:20:46;16.10;99.90
7762;DHT22;3925;48.636;9.516;2022-10-16T02:23:21;16.20;99.90
7762;DHT22;3925;48.636;9.516;2022-10-16T02:25:51;16.30;99.90
7762;DHT22;3925;48.636;9.516;2022-10-16T02:28:23;16.30;99.90
7762;DHT22;3925;48.636;9.516;2022-10-16T02:30:56;16.40;99.90
7762;DHT22;3925;48.636;9.516;2022-10-16T02:33:25;16.30;99.90
7762;DHT22;3925;48.636;9.516;2022-10-16T02:35:53;16.30;99.90
7762;DHT22;3925;48.636;9.516;2022-10-16T02:38:21;16.40;99.90
7762;DHT22;3925;48.636;9.516;2022-10-16T02:40:49;16.40;99.90
7762;DHT22;3925;48.636;9.516;2022-10-16T02:43:16;16.40;99.90
7762;DHT22;3925;48.636;9.516;2022-10-16T02:45:43;16.50;99.90
7762;DHT22;3925;48.636;9.516;2022-10-16T02:48:11;16.50;99.90
7762;DHT22;3925;48.636;9.516;2022-10-16T02:50:38;16.50;99.90
7762;DHT22;3925;48.636;9.516;2022-10-16T02:53:05;16.50;99.90
7762;DHT22;3925;48.636;9.516;2022-10-16T02:55:32;16.50;99.90
7762;DHT22;3925;48.636;9.516;2022-10-16T02:57:59;16.60;99.90
7762;DHT22;3925;48.636;9.516;2022-10-16T03:00:26;16.60;99.90
7762;DHT22;3925;48.636;9.516;2022-10-16T03:02:53;16.50;99.90
7762;DHT22;3925;48.636;9.516;2022-10-16T03:05:22;16.50;99.90
7762;DHT22;3925;48.636;9.516;2022-10-16T03:07:48;16.40;99.90
7762;DHT22;3925;48.636;9.516;2022-10-16T03:10:15;16.40;99.90
7762;DHT22;3925;48.636;9.516;2022-10-16T03:12:42;16.40;99.90
7762;DHT22;3925;48.636;9.516;2022-10-16T03:15:09;16.40;99.90
7762;DHT22;3925;48.636;9.516;2022-10-16T03:17:36;16.40;99.90
7762;DHT22;3925;48.636;9.516;2022-10-16T03:20:04;16.50;99.90
7762;DHT22;3925;48.636;9.516;2022-10-16T03:22:32;16.50;99.90
7762;DHT22;3925;48.636;9.516;2022-10-16T03:24:59;16.40;99.90
7762;DHT22;3925;48.636;9.516;2022-10-16T03:27:26;16.50;99.90
7762;DHT22;3925;48.636;9.516;2022-10-16T03:29:52;16.50;99.90
7762;DHT22;3925;48.636;9.516;2022-10-16T03:32:19;16.50;99.90
7762;DHT22;3925;48.636;9.516;2022-10-16T03:34:47;16.60;99.90
7762;DHT22;3925;48.636;9.516;2022-10-16T03:37:13;16.60;99.90
7762;DHT22;3925;48.636;9.516;2022-10-16T03:39:42;16.50;99.90
7762;DHT22;3925;48.636;9.516;2022-10-16T03:42:09;16.50;99.90
7762;DHT22;3925;48.636;9.516;2022-10-16T03:44:35;16.50;99.90
7762;DHT22;3925;48.636;9.516;2022-10-16T03:47:02;16.60;99.90
7762;DHT22;3925;48.636;9.516;2022-10-16T03:49:29;16.60;99.90
7762;DHT22;3925;48.636;9.516;2022-10-16T03:51:56;16.60;99.90
7762;DHT22;3925;48.636;9.516;2022-10-16T03:54:23;16.40;99.90
7762;DHT22;3925;48.636;9.516;2022-10-16T03:56:51;16.40;99.90
7762;DHT22;3925;48.636;9.516;2022-10-16T03:59:18;16.30;99.90
7762;DHT22;3925;48.636;9.516;2022-10-16T04:01:45;16.40;99.90
7762;DHT22;3925;48.636;9.516;2022-10-16T04:04:12;16.30;99.90
7762;DHT22;3925;48.636;9.516;2022-10-16T04:06:38;16.40;99.90
7762;DHT22;3925;48.636;9.516;2022-10-16T04:09:05;16.30;99.90
7762;DHT22;3925;48.636;9.516;2022-10-16T04:11:32;16.40;99.90
7762;DHT22;3925;48.636;9.516;2022-10-16T04:14:00;16.30;99.90
7762;DHT22;3925;48.636;9.516;2022-10-16T04:16:28;16.30;99.90
7762;DHT22;3925;48.636;9.516;2022-10-16T04:18:54;16.20;99.90
7762;DHT22;3925;48.636;9.516;2022-10-16T04:21:21;16.20;99.90
7762;DHT22;3925;48.636;9.516;2022-10-16T04:23:48;16.10;99.90
7762;DHT22;3925;48.636;9.516;2022-10-16T04:26:15;16.00;99.90
7762;DHT22;3925;48.636;9.516;2022-10-16T04:28:42;16.00;99.90
7762;DHT22;3925;48.636;9.516;2022-10-16T04:31:11;16.00;99.90
7762;DHT22;3925;48.636;9.516;2022-10-16T04:33:38;16.00;99.90
7762;DHT22;3925;48.636;9.516;2022-10-16T04:36:05;15.90;99.90
7762;DHT22;3925;48.636;9.516;2022-10-16T04:38:32;16.00;99.90
7762;DHT22;3925;48.636;9.516;2022-10-16T04:40:58;15.90;99.90
7762;DHT22;3925;48.636;9.516;2022-10-16T04:43:26;15.80;99.90
7762;DHT22;3925;48.636;9.516;2022-10-16T04:45:53;15.90;99.90
7762;DHT22;3925;48.636;9.516;2022-10-16T04:48:21;15.90;99.90
7762;DHT22;3925;48.636;9.516;2022-10-16T04:50:48;15.90;99.90
7762;DHT22;3925;48.636;9.516;2022-10-16T04:53:15;15.90;99.90
7762;DHT22;3925;48.636;9.516;2022-10-16T04:55:42;16.00;99.90
7762;DHT22;3925;48.636;9.516;2022-10-16T04:58:09;15.90;99.90
7762;DHT22;3925;48.636;9.516;2022-10-16T05:00:36;15.90;99.90
7762;DHT22;3925;48.636;9.516;2022-10-16T05:03:04;15.90;99.90
7762;DHT22;3925;48.636;9.516;2022-10-16T05:05:35;15.80;99.90
7762;DHT22;3925;48.636;9.516;2022-10-16T05:08:03;15.90;99.90
7762;DHT22;3925;48.636;9.516;2022-10-16T05:10:30;15.80;99.90
7762;DHT22;3925;48.636;9.516;2022-10-16T05:12:56;15.80;99.90
7762;DHT22;3925;48.636;9.516;2022-10-16T05:15:23;15.90;99.90
7762;DHT22;3925;48.636;9.516;2022-10-16T05:17:53;15.90;99.90
7762;DHT22;3925;48.636;9.516;2022-10-16T05:20:20;15.90;99.90
7762;DHT22;3925;48.636;9.516;2022-10-16T05:22:49;15.90;99.90
7762;DHT22;3925;48.636;9.516;2022-10-16T05:25:16;15.90;99.90
7762;DHT22;3925;48.636;9.516;2022-10-16T05:27:43;15.90;99.90
7762;DHT22;3925;48.636;9.516;2022-10-16T05:30:10;15.80;99.90
7762;DHT22;3925;48.636;9.516;2022-10-16T05:32:37;15.80;99.90
7762;DHT22;3925;48.636;9.516;2022-10-16T05:35:04;15.80;99.90
7762;DHT22;3925;48.636;9.516;2022-10-16T05:37:31;15.80;99.90
7762;DHT22;3925;48.636;9.516;2022-10-16T05:39:59;15.70;99.90
7762;DHT22;3925;48.636;9.516;2022-10-16T05:42:26;15.80;99.90
7762;DHT22;3925;48.636;9.516;2022-10-16T05:44:53;15.80;99.90
7762;DHT22;3925;48.636;9.516;2022-10-16T05:47:20;15.80;99.90
7762;DHT22;3925;48.636;9.516;2022-10-16T05:49:47;15.60;99.90
7762;DHT22;3925;48.636;9.516;2022-10-16T05:52:14;15.70;99.90
7762;DHT22;3925;48.636;9.516;2022-10-16T05:54:41;15.60;99.90
7762;DHT22;3925;48.636;9.516;2022-10-16T05:57:09;15.60;99.90
7762;DHT22;3925;48.636;9.516;2022-10-16T05:59:36;15.60;99.90
7762;DHT22;3925;48.636;9.516;2022-10-16T06:02:03;15.50;99.90
7762;DHT22;3925;48.636;9.516;2022-10-16T06:04:30;15.50;99.90
7762;DHT22;3925;48.636;9.516;2022-10-16T06:06:58;15.60;99.90
7762;DHT22;3925;48.636;9.516;2022-10-16T06:09:26;15.50;99.90
7762;DHT22;3925;48.636;9.516;2022-10-16T06:11:53;15.50;99.90
7762;DHT22;3925;48.636;9.516;2022-10-16T06:14:22;15.50;99.90
7762;DHT22;3925;48.636;9.516;2022-10-16T06:16:48;15.50;99.90
7762;DHT22;3925;48.636;9.516;2022-10-16T06:19:15;15.60;99.90
7762;DHT22;3925;48.636;9.516;2022-10-16T06:21:43;15.70;99.90
7762;DHT22;3925;48.636;9.516;2022-10-16T06:24:10;15.80;99.90
7762;DHT22;3925;48.636;9.516;2022-10-16T06:26:37;15.90;99.90
7762;DHT22;3925;48.636;9.516;2022-10-16T06:29:04;16.10;99.90
7762;DHT22;3925;48.636;9.516;2022-10-16T06:31:33;16.40;99.90
7762;DHT22;3925;48.636;9.516;2022-10-16T06:34:00;16.40;99.90
7762;DHT22;3925;48.636;9.516;2022-10-16T06:36:27;16.50;99.90
7762;DHT22;3925;48.636;9.516;2022-10-16T06:38:55;16.80;99.90
7762;DHT22;3925;48.636;9.516;2022-10-16T06:41:23;17.00;99.90
7762;DHT22;3925;48.636;9.516;2022-10-16T06:43:50;17.20;99.90
7762;DHT22;3925;48.636;9.516;2022-10-16T06:46:19;17.10;99.90
7762;DHT22;3925;48.636;9.516;2022-10-16T06:48:47;17.30;99.90
7762;DHT22;3925;48.636;9.516;2022-10-16T06:51:16;17.30;99.90
7762;DHT22;3925;48.636;9.516;2022-10-16T06:53:44;17.40;99.90
7762;DHT22;3925;48.636;9.516;2022-10-16T06:56:14;17.50;99.90
7762;DHT22;3925;48.636;9.516;2022-10-16T06:58:42;17.60;99.90
7762;DHT22;3925;48.636;9.516;2022-10-16T07:01:10;17.70;99.90
7762;DHT22;3925;48.636;9.516;2022-10-16T07:03:38;18.10;99.90
7762;DHT22;3925;48.636;9.516;2022-10-16T07:06:08;18.50;99.90
7762;DHT22;3925;48.636;9.516;2022-10-16T07:08:37;18.90;99.90
7762;DHT22;3925;48.636;9.516;2022-10-16T07:11:06;19.20;99.90
7762;DHT22;3925;48.636;9.516;2022-10-16T07:13:33;19.40;99.90
7762;DHT22;3925;48.636;9.516;2022-10-16T07:16:04;19.20;99.90
7762;DHT22;3925;48.636;9.516;2022-10-16T07:18:32;19.10;99.90
7762;DHT22;3925;48.636;9.516;2022-10-16T07:21:04;19.10;99.90
7762;DHT22;3925;48.636;9.516;2022-10-16T07:23:32;19.10;99.90
7762;DHT22;3925;48.636;9.516;2022-10-16T07:25:59;19.10;99.90
7762;DHT22;3925;48.636;9.516;2022-10-16T07:28:26;19.00;99.90
7762;DHT22;3925;48.636;9.516;2022-10-16T07:30:53;18.80;99.90
7762;DHT22;3925;48.636;9.516;2022-10-16T07:33:20;18.50;99.90
7762;DHT22;3925;48.636;9.516;2022-10-16T07:35:48;18.50;99.90
7762;DHT22;3925;48.636;9.516;2022-10-16T07:38:15;18.40;99.90
7762;DHT22;3925;48.636;9.516;2022-10-16T07:40:44;18.50;99.90
7762;DHT22;3925;48.636;9.516;2022-10-16T07:43:11;18.60;99.90
7762;DHT22;3925;48.636;9.516;2022-10-16T07:45:46;18.60;99.90
7762;DHT22;3925;48.636;9.516;2022-10-16T07:48:14;18.50;99.90
7762;DHT22;3925;48.636;9.516;2022-10-16T07:50:41;18.50;99.90
7762;DHT22;3925;48.636;9.516;2022-10-16T07:53:08;18.50;99.90
7762;DHT22;3925;48.636;9.516;2022-10-16T07:55:35;18.60;99.90
7762;DHT22;3925;48.636;9.516;2022-10-16T07:58:03;18.60;99.90
7762;DHT22;3925;48.636;9.516;2022-10-16T08:00:30;18.60;99.90
7762;DHT22;3925;48.636;9.516;2022-10-16T08:02:57;18.70;99.90
7762;DHT22;3925;48.636;9.516;2022-10-16T08:05:25;18.60;99.90
7762;DHT22;3925;48.636;9.516;2022-10-16T08:07:53;18.70;99.90
7762;DHT22;3925;48.636;9.516;2022-10-16T08:10:21;18.70;99.90
7762;DHT22;3925;48.636;9.516;2022-10-16T08:12:49;18.80;99.90
7762;DHT22;3925;48.636;9.516;2022-10-16T08:15:17;18.80;99.90
7762;DHT22;3925;48.636;9.516;2022-10-16T08:17:45;18.90;99.90
7762;DHT22;3925;48.636;9.516;2022-10-16T08:20:20;19.00;99.90
7762;DHT22;3925;48.636;9.516;2022-10-16T08:22:47;19.20;99.90
7762;DHT22;3925;48.636;9.516;2022-10-16T08:25:14;19.30;99.90
7762;DHT22;3925;48.636;9.516;2022-10-16T08:27:40;19.50;99.90
7762;DHT22;3925;48.636;9.516;2022-10-16T08:30:09;19.50;99.90
7762;DHT22;3925;48.636;9.516;2022-10-16T08:32:37;19.50;99.90
7762;DHT22;3925;48.636;9.516;2022-10-16T08:35:04;19.50;99.90
7762;DHT22;3925;48.636;9.516;2022-10-16T08:37:32;19.50;99.90
7762;DHT22;3925;48.636;9.516;2022-10-16T08:39:59;19.50;99.90
7762;DHT22;3925;48.636;9.516;2022-10-16T08:42:36;19.40;99.90
7762;DHT22;3925;48.636;9.516;2022-10-16T08:45:17;19.60;99.90
7762;DHT22;3925;48.636;9.516;2022-10-16T08:47:49;19.80;99.90
7762;DHT22;3925;48.636;9.516;2022-10-16T08:50:23;19.90;99.90
7762;DHT22;3925;48.636;9.516;2022-10-16T08:52:52;20.10;99.90
7762;DHT22;3925;48.636;9.516;2022-10-16T08:55:31;20.40;99.90
7762;DHT22;3925;48.636;9.516;2022-10-16T08:57:59;20.70;99.90
7762;DHT22;3925;48.636;9.516;2022-10-16T09:00:27;21.30;99.90
7762;DHT22;3925;48.636;9.516;2022-10-16T09:03:03;21.90;99.90
7762;DHT22;3925;48.636;9.516;2022-10-16T09:08:45;22.60;99.90
7762;DHT22;3925;48.636;9.516;2022-10-16T09:11:18;22.40;99.90
7762;DHT22;3925;48.636;9.516;2022-10-16T09:13:51;22.30;99.90
7762;DHT22;3925;48.636;9.516;2022-10-16T09:16:25;22.20;99.90
7762;DHT22;3925;48.636;9.516;2022-10-16T09:19:02;22.10;99.90
7762;DHT22;3925;48.636;9.516;2022-10-16T09:21:33;22.00;99.90
7762;DHT22;3925;48.636;9.516;2022-10-16T09:24:10;21.90;99.90
7762;DHT22;3925;48.636;9.516;2022-10-16T09:26:38;21.70;99.90
7762;DHT22;3925;48.636;9.516;2022-10-16T09:29:05;21.70;99.90
7762;DHT22;3925;48.636;9.516;2022-10-16T09:31:32;21.40;99.90
7762;DHT22;3925;48.636;9.516;2022-10-16T09:34:04;21.80;99.90
7762;DHT22;3925;48.636;9.516;2022-10-16T09:36:36;22.00;99.90
7762;DHT22;3925;48.636;9.516;2022-10-16T09:39:07;22.60;99.90
7762;DHT22;3925;48.636;9.516;2022-10-16T09:41:34;23.60;99.90
7762;DHT22;3925;48.636;9.516;2022-10-16T09:44:04;24.20;99.90
7762;DHT22;3925;48.636;9.516;2022-10-16T09:46:33;24.30;99.90
7762;DHT22;3925;48.636;9.516;2022-10-16T09:49:03;24.30;99.90
7762;DHT22;3925;48.636;9.516;2022-10-16T09:51:32;24.20;99.90
7762;DHT22;3925;48.636;9.516;2022-10-16T09:54:02;24.00;99.90
7762;DHT22;3925;48.636;9.516;2022-10-16T09:56:30;23.70;99.90
7762;DHT22;3925;48.636;9.516;2022-10-16T09:59:00;23.70;99.90
7762;DHT22;3925;48.636;9.516;2022-10-16T10:01:31;23.70;99.90
7762;DHT22;3925;48.636;9.516;2022-10-16T10:04:03;23.70;99.90
7762;DHT22;3925;48.636;9.516;2022-10-16T10:06:33;23.60;99.90
7762;DHT22;3925;48.636;9.516;2022-10-16T10:09:05;23.40;99.90
7762;DHT22;3925;48.636;9.516;2022-10-16T10:11:45;23.40;99.90
7762;DHT22;3925;48.636;9.516;2022-10-16T10:14:21;23.30;99.90
7762;DHT22;3925;48.636;9.516;2022-10-16T10:16:49;23.00;99.90
7762;DHT22;3925;48.636;9.516;2022-10-16T10:19:20;22.80;99.90
7762;DHT22;3925;48.636;9.516;2022-10-16T10:21:47;22.70;99.90
7762;DHT22;3925;48.636;9.516;2022-10-16T10:24:17;22.80;99.90
7762;DHT22;3925;48.636;9.516;2022-10-16T10:26:50;22.80;99.90
7762;DHT22;3925;48.636;9.516;2022-10-16T10:29:42;23.00;99.90
7762;DHT22;3925;48.636;9.516;2022-10-16T10:32:21;23.50;99.90
7762;DHT22;3925;48.636;9.516;2022-10-16T10:35:02;24.60;99.90
7762;DHT22;3925;48.636;9.516;2022-10-16T10:37:43;26.60;99.90
7762;DHT22;3925;48.636;9.516;2022-10-16T10:42:52;30.40;95.40
7762;DHT22;3925;48.636;9.516;2022-10-16T10:45:26;32.00;92.50
7762;DHT22;3925;48.636;9.516;2022-10-16T10:48:03;32.50;88.20
7762;DHT22;3925;48.636;9.516;2022-10-16T10:50:39;32.60;81.20
7762;DHT22;3925;48.636;9.516;2022-10-16T10:53:17;31.00;84.60
7762;DHT22;3925;48.636;9.516;2022-10-16T10:55:48;30.50;84.50
7762;DHT22;3925;48.636;9.516;2022-10-16T10:58:40;30.60;84.50
7762;DHT22;3925;48.636;9.516;2022-10-16T11:01:11;29.80;79.60
7762;DHT22;3925;48.636;9.516;2022-10-16T11:03:53;30.20;81.90
7762;DHT22;3925;48.636;9.516;2022-10-16T11:06:25;30.00;81.50
7762;DHT22;3925;48.636;9.516;2022-10-16T11:08:57;30.60;82.10
7762;DHT22;3925;48.636;9.516;2022-10-16T11:11:30;30.80;86.80
7762;DHT22;3925;48.636;9.516;2022-10-16T11:14:00;30.30;82.10
7762;DHT22;3925;48.636;9.516;2022-10-16T11:16:33;31.10;79.60
7762;DHT22;3925;48.636;9.516;2022-10-16T11:19:10;32.70;76.70
7762;DHT22;3925;48.636;9.516;2022-10-16T11:21:44;34.10;69.90
7762;DHT22;3925;48.636;9.516;2022-10-16T11:24:20;35.10;68.40
7762;DHT22;3925;48.636;9.516;2022-10-16T11:26:50;35.20;63.10
7762;DHT22;3925;48.636;9.516;2022-10-16T11:29:23;35.60;58.80
7762;DHT22;3925;48.636;9.516;2022-10-16T11:31:55;35.30;57.50
7762;DHT22;3925;48.636;9.516;2022-10-16T11:34:28;34.00;58.60
7762;DHT22;3925;48.636;9.516;2022-10-16T11:37:04;33.40;62.60
7762;DHT22;3925;48.636;9.516;2022-10-16T11:39:33;33.40;61.60
7762;DHT22;3925;48.636;9.516;2022-10-16T11:42:04;33.40;61.40
7762;DHT22;3925;48.636;9.516;2022-10-16T11:44:43;32.60;61.50
7762;DHT22;3925;48.636;9.516;2022-10-16T11:47:23;31.30;67.70
7762;DHT22;3925;48.636;9.516;2022-10-16T11:49:55;31.30;67.20
7762;DHT22;3925;48.636;9.516;2022-10-16T11:52:33;31.80;69.60
7762;DHT22;3925;48.636;9.516;2022-10-16T11:55:09;32.20;67.20
7762;DHT22;3925;48.636;9.516;2022-10-16T11:57:44;32.30;65.20
7762;DHT22;3925;48.636;9.516;2022-10-16T12:00:21;31.90;65.00
7762;DHT22;3925;48.636;9.516;2022-10-16T12:02:56;31.20;63.40
7762;DHT22;3925;48.636;9.516;2022-10-16T12:05:30;30.60;68.10
7762;DHT22;3925;48.636;9.516;2022-10-16T12:08:08;30.50;67.60
7762;DHT22;3925;48.636;9.516;2022-10-16T12:10:37;29.90;69.80
7762;DHT22;3925;48.636;9.516;2022-10-16T12:15:47;28.80;72.60
7762;DHT22;3925;48.636;9.516;2022-10-16T12:18:21;28.70;78.60
7762;DHT22;3925;48.636;9.516;2022-10-16T12:20:54;28.50;76.40
7762;DHT22;3925;48.636;9.516;2022-10-16T12:23:25;28.10;79.40
7762;DHT22;3925;48.636;9.516;2022-10-16T12:25:55;28.00;80.60
7762;DHT22;3925;48.636;9.516;2022-10-16T12:28:27;27.80;79.10
7762;DHT22;3925;48.636;9.516;2022-10-16T12:30:56;27.00;75.80
7762;DHT22;3925;48.636;9.516;2022-10-16T12:33:25;26.70;77.80
7762;DHT22;3925;48.636;9.516;2022-10-16T12:35:53;26.70;81.80
7762;DHT22;3925;48.636;9.516;2022-10-16T12:38:25;26.60;80.70
7762;DHT22;3925;48.636;9.516;2022-10-16T12:41:00;26.30;81.10
7762;DHT22;3925;48.636;9.516;2022-10-16T12:43:36;26.10;83.30
7762;DHT22;3925;48.636;9.516;2022-10-16T12:46:19;26.00;84.20
7762;DHT22;3925;48.636;9.516;2022-10-16T12:48:47;25.90;83.60
7762;DHT22;3925;48.636;9.516;2022-10-16T12:51:24;25.80;87.30
7762;DHT22;3925;48.636;9.516;2022-10-16T12:53:59;25.70;89.80
7762;DHT22;3925;48.636;9.516;2022-10-16T12:56:36;25.50;88.50
7762;DHT22;3925;48.636;9.516;2022-10-16T12:59:13;25.50;88.90
7762;DHT22;3925;48.636;9.516;2022-10-16T13:01:54;25.60;91.40
7762;DHT22;3925;48.636;9.516;2022-10-16T13:07:32;25.10;88.30
7762;DHT22;3925;48.636;9.516;2022-10-16T13:10:14;24.80;89.80
7762;DHT22;3925;48.636;9.516;2022-10-16T13:15:51;24.50;90.60
7762;DHT22;3925;48.636;9.516;2022-10-16T13:18:24;24.40;91.40
7762;DHT22;3925;48.636;9.516;2022-10-16T13:21:08;24.50;92.10
7762;DHT22;3925;48.636;9.516;2022-10-16T13:23:42;24.40;90.90
7762;DHT22;3925;48.636;9.516;2022-10-16T13:26:20;24.70;91.70
7762;DHT22;3925;48.636;9.516;2022-10-16T13:28:49;24.90;91.70
7762;DHT22;3925;48.636;9.516;2022-10-16T13:31:20;25.10;92.10
7762;DHT22;3925;48.636;9.516;2022-10-16T13:33:51;25.30;91.30
7762;DHT22;3925;48.636;9.516;2022-10-16T13:36:22;25.10;90.70
7762;DHT22;3925;48.636;9.516;2022-10-16T13:39:00;25.10;90.90
7762;DHT22;3925;48.636;9.516;2022-10-16T13:41:30;24.90;90.90
7762;DHT22;3925;48.636;9.516;2022-10-16T13:43:57;25.00;91.70
7762;DHT22;3925;48.636;9.516;2022-10-16T13:46:26;24.90;92.00
7762;DHT22;3925;48.636;9.516;2022-10-16T13:48:56;24.80;90.40
7762;DHT22;3925;48.636;9.516;2022-10-16T13:51:24;24.60;91.10
7762;DHT22;3925;48.636;9.516;2022-10-16T13:53:51;24.50;91.30
7762;DHT22;3925;48.636;9.516;2022-10-16T13:56:20;24.30;91.90
7762;DHT22;3925;48.636;9.516;2022-10-16T13:58:58;24.20;91.40
7762;DHT22;3925;48.636;9.516;2022-10-16T14:01:28;24.10;92.90
7762;DHT22;3925;48.636;9.516;2022-10-16T14:04:01;24.10;93.20
7762;DHT22;3925;48.636;9.516;2022-10-16T14:06:29;24.10;93.00
7762;DHT22;3925;48.636;9.516;2022-10-16T14:09:00;24.00;91.90
7762;DHT22;3925;48.636;9.516;2022-10-16T14:11:28;23.90;92.60
7762;DHT22;3925;48.636;9.516;2022-10-16T14:13:56;23.90;92.70
7762;DHT22;3925;48.636;9.516;2022-10-16T14:16:25;23.80;92.50
7762;DHT22;3925;48.636;9.516;2022-10-16T14:18:59;23.60;91.80
7762;DHT22;3925;48.636;9.516;2022-10-16T14:21:27;23.60;94.70
7762;DHT22;3925;48.636;9.516;2022-10-16T14:23:54;23.50;96.10
7762;DHT22;3925;48.636;9.516;2022-10-16T14:26:23;23.50;96.50
7762;DHT22;3925;48.636;9.516;2022-10-16T14:29:03;23.50;96.70
7762;DHT22;3925;48.636;9.516;2022-10-16T14:31:33;23.50;97.20
7762;DHT22;3925;48.636;9.516;2022-10-16T14:34:03;23.40;97.40
7762;DHT22;3925;48.636;9.516;2022-10-16T14:36:30;23.40;97.60
7762;DHT22;3925;48.636;9.516;2022-10-16T14:39:00;23.40;97.40
7762;DHT22;3925;48.636;9.516;2022-10-16T14:41:28;23.30;97.70
7762;DHT22;3925;48.636;9.516;2022-10-16T14:43:56;23.20;98.00
7762;DHT22;3925;48.636;9.516;2022-10-16T14:46:31;23.10;97.90
7762;DHT22;3925;48.636;9.516;2022-10-16T14:49:03;23.00;98.60
7762;DHT22;3925;48.636;9.516;2022-10-16T14:51:31;23.00;99.40
7762;DHT22;3925;48.636;9.516;2022-10-16T14:53:58;23.00;99.40
7762;DHT22;3925;48.636;9.516;2022-10-16T14:56:29;23.00;99.90
7762;DHT22;3925;48.636;9.516;2022-10-16T14:58:56;23.00;99.90
7762;DHT22;3925;48.636;9.516;2022-10-16T15:01:23;23.00;99.90
7762;DHT22;3925;48.636;9.516;2022-10-16T15:03:50;23.00;99.90
7762;DHT22;3925;48.636;9.516;2022-10-16T15:06:21;23.00;99.90
7762;DHT22;3925;48.636;9.516;2022-10-16T15:08:48;22.90;99.90
7762;DHT22;3925;48.636;9.516;2022-10-16T15:11:16;22.80;99.90
7762;DHT22;3925;48.636;9.516;2022-10-16T15:13:44;22.80;99.90
7762;DHT22;3925;48.636;9.516;2022-10-16T15:16:13;22.80;99.90
7762;DHT22;3925;48.636;9.516;2022-10-16T15:18:40;22.80;99.90
7762;DHT22;3925;48.636;9.516;2022-10-16T15:21:07;22.70;99.90
7762;DHT22;3925;48.636;9.516;2022-10-16T15:23:35;22.80;99.90
7762;DHT22;3925;48.636;9.516;2022-10-16T15:26:04;22.70;99.90
7762;DHT22;3925;48.636;9.516;2022-10-16T15:28:31;22.70;99.90
7762;DHT22;3925;48.636;9.516;2022-10-16T15:30:58;22.70;99.90
7762;DHT22;3925;48.636;9.516;2022-10-16T15:33:27;22.60;99.90
7762;DHT22;3925;48.636;9.516;2022-10-16T15:35:58;22.60;99.90
7762;DHT22;3925;48.636;9.516;2022-10-16T15:38:26;22.60;99.90
7762;DHT22;3925;48.636;9.516;2022-10-16T15:40:55;22.50;99.90
7762;DHT22;3925;48.636;9.516;2022-10-16T15:43:22;22.40;99.90
7762;DHT22;3925;48.636;9.516;2022-10-16T15:45:59;22.30;99.90
7762;DHT22;3925;48.636;9.516;2022-10-16T15:48:27;22.20;99.90
7762;DHT22;3925;48.636;9.516;2022-10-16T15:50:55;22.20;99.90
7762;DHT22;3925;48.636;9.516;2022-10-16T15:53:22;22.20;99.90
7762;DHT22;3925;48.636;9.516;2022-10-16T15:55:49;22.20;99.90
7762;DHT22;3925;48.636;9.516;2022-10-16T15:58:17;22.10;99.90
7762;DHT22;3925;48.636;9.516;2022-10-16T16:00:44;22.10;99.90
7762;DHT22;3925;48.636;9.516;2022-10-16T16:03:11;22.00;99.90
7762;DHT22;3925;48.636;9.516;2022-10-16T16:05:38;21.90;99.90
7762;DHT22;3925;48.636;9.516;2022-10-16T16:08:05;21.80;99.90
7762;DHT22;3925;48.636;9.516;2022-10-16T16:10:32;21.60;99.90
7762;DHT22;3925;48.636;9.516;2022-10-16T16:12:59;21.40;99.90
7762;DHT22;3925;48.636;9.516;2022-10-16T16:15:27;21.30;99.90
7762;DHT22;3925;48.636;9.516;2022-10-16T16:17:54;21.30;99.90
7762;DHT22;3925;48.636;9.516;2022-10-16T16:20:21;21.20;99.90
7762;DHT22;3925;48.636;9.516;2022-10-16T16:22:48;21.10;99.90
7762;DHT22;3925;48.636;9.516;2022-10-16T16:25:15;21.00;99.90
7762;DHT22;3925;48.636;9.516;2022-10-16T16:27:42;21.00;99.90
7762;DHT22;3925;48.636;9.516;2022-10-16T16:30:11;20.90;99.90
7762;DHT22;3925;48.636;9.516;2022-10-16T16:32:39;20.70;99.90
7762;DHT22;3925;48.636;9.516;2022-10-16T16:35:06;20.60;99.90
7762;DHT22;3925;48.636;9.516;2022-10-16T16:37:33;20.60;99.90